Mount Gambier, Australia
Current Conditions -  °F | °C
As of 11:00 PM on Friday 28 Nov 2014 (Local Time) from YMTG Reporting Station
Clear Clear  
Wind Chill: 52°   Ceiling: Unl
Heat Index: 52°   Visibility: 6mi
Dew Point: 48°   Wind: 10mph
Humidity: 88%   Direction: 120°ESE
Pressure: 30.06"   Gusts: NA
Location:  37.83°S, 140.78°E
Report Text: YMTG 281300Z AUTO 12009KT 9999 // NCD 11/09 Q1018
Loading
Personal Weather Stations






























Interactive Weather Map New forecast layout! Learn more

10-Day Weather Forecast

Advertisements
Track Severe Weather on mobile